Time;durP1;ratioP1;P1;durP2;ratioP2;P2;SDS_P1;SDS_P2;PMS_P1;PMS_P2;Temp;Humidity;BMP_temperature;BMP_pressure;BME280_temperature;BME280_humidity;BME280_pressure;Samples;Min_cycle;Max_cycle;Signal;HPM_P1;HPM_P2
2023/09/03 00:00:32;;;;;;;5.97;3.40;;;;;;;19.91;65.57;93418.72;2057736;69;20185;-78
2023/09/03 00:02:58;;;;;;;5.82;3.90;;;;;;;19.87;65.41;93421.44;2056043;69;20237;-78
2023/09/03 00:05:23;;;;;;;6.80;4.03;;;;;;;19.79;65.88;93421.13;2054453;69;20152;-79
2023/09/03 00:07:50;;;;;;;6.97;3.92;;;;;;;19.83;65.33;93421.28;2058252;69;20216;-78
2023/09/03 00:10:15;;;;;;;8.85;3.97;;;;;;;19.76;65.64;93428.88;2057937;69;20566;-79
2023/09/03 00:12:41;;;;;;;8.50;4.10;;;;;;;19.74;66.17;93425.94;2058271;69;20142;-78
2023/09/03 00:15:07;;;;;;;5.95;3.85;;;;;;;19.64;66.01;93424.81;2057915;69;20192;-78
2023/09/03 00:17:33;;;;;;;5.65;4.28;;;;;;;19.66;65.83;93434.22;2054291;69;20224;-78
2023/09/03 00:19:58;;;;;;;6.80;4.10;;;;;;;19.59;66.00;93426.03;2057999;69;20165;-78
2023/09/03 00:22:24;;;;;;;7.13;4.40;;;;;;;19.57;66.02;93426.69;2058062;69;20502;-78
2023/09/03 00:24:49;;;;;;;7.95;4.20;;;;;;;19.51;65.92;93412.91;2058110;69;20150;-78
2023/09/03 00:27:15;;;;;;;6.63;3.80;;;;;;;19.62;65.55;93416.94;2054953;69;20165;-78
2023/09/03 00:29:41;;;;;;;7.35;4.32;;;;;;;19.47;66.69;93406.28;2054628;69;20716;-78
2023/09/03 00:32:06;;;;;;;9.48;3.92;;;;;;;19.42;66.76;93413.22;2052130;69;20177;-78
2023/09/03 00:34:32;;;;;;;11.30;3.92;;;;;;;19.51;65.31;93392.19;2054989;69;20602;-79
2023/09/03 00:36:59;;;;;;;6.47;3.50;;;;;;;19.43;66.24;93398.31;2055160;69;20189;-79
2023/09/03 00:39:24;;;;;;;9.07;4.40;;;;;;;19.08;67.56;93407.63;2055012;69;20153;-78
2023/09/03 00:41:50;;;;;;;9.48;3.88;;;;;;;19.32;66.33;93412.84;2057614;69;20245;-78
2023/09/03 00:44:16;;;;;;;5.35;3.67;;;;;;;19.25;66.87;93409.03;2058080;69;20169;-78
2023/09/03 00:46:43;;;;;;;6.22;3.85;;;;;;;19.35;65.27;93412.28;2054488;69;20170;-78
2023/09/03 00:49:11;;;;;;;6.28;3.65;;;;;;;19.32;66.11;93413.56;2054464;69;20193;-78
2023/09/03 00:51:38;;;;;;;6.35;4.03;;;;;;;19.17;67.10;93406.56;2058284;69;20273;-78
2023/09/03 00:54:05;;;;;;;8.07;3.97;;;;;;;19.20;66.84;93408.13;2057509;69;20149;-77
2023/09/03 00:56:30;;;;;;;7.13;3.80;;;;;;;19.09;67.69;93420.50;2054936;70;20234;-78
2023/09/03 00:58:56;;;;;;;6.20;4.00;;;;;;;19.10;66.98;93413.41;2054778;70;20166;-78
2023/09/03 01:01:22;;;;;;;6.75;3.78;;;;;;;19.02;67.68;93422.38;2053294;69;20208;-80
2023/09/03 01:03:48;;;;;;;7.82;4.10;;;;;;;19.04;67.51;93421.72;2057091;69;20602;-78
2023/09/03 01:06:14;;;;;;;7.32;4.38;;;;;;;19.01;67.33;93423.78;2054249;69;20164;-78
2023/09/03 01:08:41;;;;;;;5.80;4.00;;;;;;;18.92;68.19;93424.84;2057339;69;20172;-78
2023/09/03 01:11:37;;;;;;;6.13;3.65;;;;;;;18.99;67.64;93440.81;2054822;70;20525;-78
2023/09/03 01:14:16;;;;;;;6.97;4.03;;;;;;;19.01;67.62;93443.00;2053544;69;20148;-79
2023/09/03 01:17:12;;;;;;;6.68;3.53;;;;;;;18.99;68.00;93442.94;2053907;69;20186;-79
2023/09/03 01:19:47;;;;;;;7.78;3.90;;;;;;;18.98;67.77;93442.19;2058120;69;20157;-78
2023/09/03 01:22:48;;;;;;;6.85;4.00;;;;;;;18.81;68.13;93437.19;2056507;69;20158;-78
2023/09/03 01:25:17;;;;;;;10.73;4.30;;;;;;;18.65;68.52;93437.22;2049913;69;20133;-79
2023/09/03 01:27:45;;;;;;;7.20;4.00;;;;;;;18.69;68.74;93434.56;2057566;69;20149;-78
2023/09/03 01:30:11;;;;;;;8.40;3.80;;;;;;;18.71;68.42;93428.22;2054381;69;20141;-78
2023/09/03 01:32:37;;;;;;;9.07;4.22;;;;;;;18.69;68.89;93433.81;2057717;69;20165;-79
2023/09/03 01:35:05;;;;;;;5.28;3.65;;;;;;;18.77;68.46;93434.91;2057267;69;20200;-80
2023/09/03 01:37:31;;;;;;;8.57;3.80;;;;;;;18.65;68.47;93440.06;2057236;69;20280;-79
2023/09/03 01:39:56;;;;;;;6.80;3.78;;;;;;;18.63;68.99;93442.09;2054595;69;20179;-78
2023/09/03 01:42:22;;;;;;;7.57;4.00;;;;;;;18.65;68.35;93448.63;2057407;69;20227;-78
2023/09/03 01:44:48;;;;;;;6.95;4.30;;;;;;;18.59;68.22;93439.78;2057676;69;20149;-79
2023/09/03 01:47:33;;;;;;;8.05;4.00;;;;;;;18.56;68.58;93428.97;2057293;69;20569;-79
2023/09/03 01:50:11;;;;;;;8.23;3.92;;;;;;;18.63;68.31;93437.13;2057853;69;20193;-78
2023/09/03 01:52:48;;;;;;;7.93;4.15;;;;;;;18.55;68.51;93436.78;2057570;69;20173;-78
2023/09/03 01:55:18;;;;;;;7.80;4.45;;;;;;;18.52;68.25;93433.09;2054786;69;20149;-78
2023/09/03 01:57:49;;;;;;;11.38;4.38;;;;;;;18.42;69.10;93438.38;2054115;69;20161;-78
2023/09/03 02:00:18;;;;;;;7.30;3.95;;;;;;;18.54;67.56;93435.31;2053020;69;20161;-78
2023/09/03 02:02:47;;;;;;;8.70;4.20;;;;;;;18.45;68.84;93442.78;2057442;69;20161;-78
2023/09/03 02:05:13;;;;;;;10.05;3.90;;;;;;;18.41;69.00;93451.16;2057714;69;20790;-78
2023/09/03 02:07:40;;;;;;;8.50;4.00;;;;;;;18.38;69.50;93448.88;2054385;69;20166;-78
2023/09/03 02:10:06;;;;;;;5.25;4.13;;;;;;;18.32;68.67;93449.31;2054306;69;20625;-79
2023/09/03 02:12:32;;;;;;;6.05;3.83;;;;;;;18.33;68.62;93452.94;2053835;69;20154;-78
2023/09/03 02:14:57;;;;;;;5.32;3.90;;;;;;;18.39;68.66;93447.47;2057859;69;20223;-79
2023/09/03 02:17:24;;;;;;;7.32;4.68;;;;;;;17.55;72.21;93452.25;2054692;69;20145;-79
2023/09/03 02:19:52;;;;;;;6.05;4.00;;;;;;;17.98;70.26;93449.25;2057912;69;20145;-79
2023/09/03 02:22:19;;;;;;;7.82;4.35;;;;;;;18.10;69.09;93446.25;2054720;69;20146;-79
2023/09/03 02:24:45;;;;;;;7.82;4.30;;;;;;;18.12;69.44;93454.88;2053545;70;20249;-79
2023/09/03 02:27:11;;;;;;;7.25;4.30;;;;;;;18.18;68.34;93457.25;2057044;69;20228;-78
2023/09/03 02:29:38;;;;;;;7.80;4.18;;;;;;;17.98;69.72;93457.81;2054529;69;20581;-78
2023/09/03 02:32:07;;;;;;;10.32;4.72;;;;;;;18.02;69.55;93460.84;2054595;69;20166;-78
2023/09/03 02:34:34;;;;;;;9.40;4.40;;;;;;;17.99;70.36;93453.56;2058051;69;20134;-78
2023/09/03 02:37:03;;;;;;;6.28;4.43;;;;;;;18.06;69.97;93456.72;2054246;69;20137;-78
2023/09/03 02:39:29;;;;;;;6.93;4.50;;;;;;;17.97;70.13;93462.03;2052048;70;20200;-79
2023/09/03 02:41:54;;;;;;;10.02;4.63;;;;;;;17.85;70.54;93460.75;2055817;69;20521;-78
2023/09/03 02:44:20;;;;;;;7.65;4.60;;;;;;;17.93;69.47;93455.41;2056931;69;20761;-78
2023/09/03 02:46:46;;;;;;;7.05;4.38;;;;;;;17.88;70.17;93456.63;2053993;69;20160;-79
2023/09/03 02:49:12;;;;;;;9.27;4.20;;;;;;;17.91;69.40;93464.59;2053150;70;20146;-79
2023/09/03 02:51:38;;;;;;;7.05;3.85;;;;;;;17.93;69.60;93470.41;2050744;70;20150;-79
2023/09/03 02:54:04;;;;;;;6.68;4.43;;;;;;;17.82;70.16;93470.56;2052394;70;20479;-79
2023/09/03 02:56:30;;;;;;;8.15;4.28;;;;;;;17.75;70.15;93478.09;2053106;69;20152;-78
2023/09/03 02:58:55;;;;;;;5.95;4.07;;;;;;;17.76;70.09;93468.91;2054648;69;20153;-79
2023/09/03 03:01:21;;;;;;;7.63;4.10;;;;;;;17.77;70.39;93476.06;2057432;69;20586;-78
2023/09/03 03:03:48;;;;;;;7.05;4.38;;;;;;;17.74;70.23;93479.47;2054065;69;20256;-78
2023/09/03 03:06:14;;;;;;;7.28;4.32;;;;;;;17.74;70.22;93480.22;2055037;69;20241;-78
2023/09/03 03:08:43;;;;;;;8.48;4.40;;;;;;;17.73;70.01;93475.13;2057847;69;20176;-78
2023/09/03 03:11:08;;;;;;;5.15;3.97;;;;;;;17.75;69.84;93480.94;2057234;69;20185;-78
2023/09/03 03:13:38;;;;;;;6.45;4.28;;;;;;;17.72;69.73;93473.66;2054705;69;20633;-78
2023/09/03 03:16:10;;;;;;;8.70;3.90;;;;;;;17.67;70.52;93475.56;2055114;69;20157;-79
2023/09/03 03:18:39;;;;;;;6.03;3.80;;;;;;;17.58;70.69;93479.41;2054795;69;20149;-78
2023/09/03 03:21:22;;;;;;;9.05;4.93;;;;;;;17.48;71.00;93476.09;2052398;69;20632;-79
2023/09/03 03:23:56;;;;;;;6.15;4.22;;;;;;;17.50;71.76;93479.78;2055171;69;20145;-79
2023/09/03 03:26:31;;;;;;;5.70;3.97;;;;;;;17.61;70.56;93474.56;2054593;69;20296;-79
2023/09/03 03:29:03;;;;;;;6.30;4.10;;;;;;;17.62;70.44;93473.19;2054039;70;20148;-78
2023/09/03 03:31:34;;;;;;;7.05;4.40;;;;;;;17.60;70.52;93470.97;2051711;70;20183;-78
2023/09/03 03:34:01;;;;;;;6.22;4.10;;;;;;;17.64;70.17;93476.13;2056770;69;20513;-78
2023/09/03 03:36:29;;;;;;;5.40;4.22;;;;;;;17.56;70.39;93478.59;2053071;70;20166;-79
2023/09/03 03:38:58;;;;;;;5.90;3.92;;;;;;;17.52;70.76;93487.69;2056424;69;20158;-78
2023/09/03 03:41:24;;;;;;;8.30;4.13;;;;;;;17.63;68.66;93488.88;2054180;69;20518;-78
2023/09/03 03:43:53;;;;;;;8.93;4.05;;;;;;;17.57;70.57;93488.59;2054576;69;20154;-78
2023/09/03 03:46:21;;;;;;;7.45;4.00;;;;;;;17.62;70.55;93495.97;2054590;69;20161;-78
2023/09/03 03:48:50;;;;;;;8.07;4.60;;;;;;;17.51;69.96;93486.94;2053720;69;20154;-78
2023/09/03 03:51:18;;;;;;;8.48;4.80;;;;;;;17.58;70.00;93493.66;2054631;69;20561;-78
2023/09/03 03:53:48;;;;;;;6.70;4.05;;;;;;;17.47;70.56;93489.59;2054649;69;20224;-78
2023/09/03 03:56:16;;;;;;;5.53;3.80;;;;;;;17.44;70.07;93490.13;2057572;69;20154;-77
2023/09/03 03:58:48;;;;;;;5.47;4.38;;;;;;;17.45;70.76;93492.31;2054909;69;20585;-78
2023/09/03 04:01:23;;;;;;;5.57;4.10;;;;;;;17.41;70.72;93492.16;2054775;69;20160;-78
2023/09/03 04:03:50;;;;;;;6.80;4.38;;;;;;;17.26;72.24;93495.66;2054848;69;20188;-79
2023/09/03 04:06:17;;;;;;;7.90;4.40;;;;;;;17.33;70.87;93503.16;2058235;69;20207;-78
2023/09/03 04:08:48;;;;;;;7.20;4.40;;;;;;;17.36;71.29;93504.69;2051062;70;20610;-78
2023/09/03 04:11:20;;;;;;;5.95;3.88;;;;;;;17.24;71.93;93510.53;2054571;70;20166;-78
2023/09/03 04:13:47;;;;;;;6.80;4.75;;;;;;;17.21;71.63;93511.81;2053574;69;20161;-78
2023/09/03 04:16:19;;;;;;;8.50;4.63;;;;;;;17.33;71.74;93511.69;2050908;69;20141;-79
2023/09/03 04:18:49;;;;;;;7.32;4.57;;;;;;;17.23;71.69;93517.63;2054186;69;20150;-79
2023/09/03 04:21:14;;;;;;;8.88;4.20;;;;;;;16.94;72.64;93478.47;2053392;70;20577;-79
2023/09/03 04:23:40;;;;;;;8.23;4.57;;;;;;;17.21;71.88;93511.06;2055124;70;20166;-79
2023/09/03 04:26:08;;;;;;;6.35;4.53;;;;;;;17.12;71.89;93498.56;2053846;69;20177;-79
2023/09/03 04:28:37;;;;;;;7.97;4.38;;;;;;;17.08;72.76;93503.31;2054962;69;20360;-79
2023/09/03 04:31:04;;;;;;;11.18;4.80;;;;;;;17.08;72.31;93501.19;2054382;69;20157;-79
2023/09/03 04:33:33;;;;;;;5.75;4.00;;;;;;;17.12;72.20;93506.34;2052085;69;20578;-79
2023/09/03 04:36:01;;;;;;;7.72;4.30;;;;;;;17.21;70.90;93496.84;2054030;69;20272;-79
2023/09/03 04:38:29;;;;;;;6.63;4.10;;;;;;;17.12;72.56;93497.81;2052209;69;20192;-80
2023/09/03 04:40:56;;;;;;;8.93;4.63;;;;;;;17.15;72.48;93494.44;2054749;69;20150;-79
2023/09/03 04:43:23;;;;;;;5.78;4.13;;;;;;;17.16;71.21;93490.22;2054319;69;20145;-80
2023/09/03 04:45:52;;;;;;;7.20;4.20;;;;;;;17.15;71.67;93482.34;2058133;69;20584;-79
2023/09/03 04:48:22;;;;;;;7.07;4.45;;;;;;;17.13;72.30;93499.28;2051215;70;20212;-79
2023/09/03 04:50:48;;;;;;;8.60;4.55;;;;;;;17.06;72.51;93494.69;2051478;70;20134;-81
2023/09/03 04:53:14;;;;;;;6.55;4.65;;;;;;;17.22;71.03;93506.84;2046487;69;20616;-80
2023/09/03 04:55:41;;;;;;;7.47;4.88;;;;;;;17.11;72.30;93505.63;2053389;70;20185;-80
2023/09/03 04:58:06;;;;;;;10.20;4.72;;;;;;;17.20;71.04;93513.19;2051645;70;20602;-80
2023/09/03 05:00:33;;;;;;;7.82;4.90;;;;;;;17.20;71.70;93510.34;2051520;70;20181;-80
2023/09/03 05:03:01;;;;;;;11.38;4.70;;;;;;;17.34;70.08;93521.69;2051634;70;20176;-80
2023/09/03 05:05:26;;;;;;;7.72;4.93;;;;;;;17.23;71.50;93523.31;2051497;70;20165;-80
2023/09/03 05:07:53;;;;;;;8.45;4.53;;;;;;;17.28;71.63;93524.97;2054442;70;20157;-80
2023/09/03 05:10:18;;;;;;;8.10;4.72;;;;;;;17.34;71.60;93530.22;2051610;70;20556;-80
2023/09/03 05:12:44;;;;;;;6.30;4.47;;;;;;;17.33;71.66;93528.03;2051607;70;20180;-80
2023/09/03 05:15:11;;;;;;;6.85;4.32;;;;;;;17.39;71.10;93525.47;2051465;70;20586;-81
2023/09/03 05:17:39;;;;;;;5.90;4.30;;;;;;;17.37;72.67;93528.97;2051684;70;20188;-81
2023/09/03 05:20:06;;;;;;;6.40;4.18;;;;;;;17.37;72.30;93537.50;2054589;70;20626;-81
2023/09/03 05:22:33;;;;;;;7.85;4.90;;;;;;;17.11;72.08;93539.75;2051564;70;20153;-81
2023/09/03 05:24:58;;;;;;;10.55;6.10;;;;;;;16.56;74.76;93539.78;2054967;69;20265;-83
2023/09/03 05:27:24;;;;;;;17.05;6.57;;;;;;;17.09;71.44;93538.91;2054900;70;20265;-82
2023/09/03 05:29:51;;;;;;;9.35;5.80;;;;;;;17.32;70.92;93543.59;2054800;69;20157;-82
2023/09/03 05:32:17;;;;;;;8.88;4.97;;;;;;;17.33;70.94;93550.78;2051731;70;20162;-81
2023/09/03 05:34:43;;;;;;;12.80;5.93;;;;;;;17.37;71.51;93560.25;2054467;70;20565;-80
2023/09/03 05:37:09;;;;;;;8.43;5.45;;;;;;;17.33;71.65;93570.72;2051786;70;20257;-81
2023/09/03 05:39:35;;;;;;;9.63;5.65;;;;;;;17.38;71.71;93561.72;2051703;70;20150;-81
2023/09/03 05:42:01;;;;;;;7.18;5.25;;;;;;;17.36;71.86;93550.22;2055062;69;20150;-80
2023/09/03 05:44:27;;;;;;;11.20;4.82;;;;;;;17.46;71.69;93556.44;2054884;69;20236;-85
2023/09/03 05:46:53;;;;;;;8.88;5.30;;;;;;;17.54;72.00;93567.47;2051705;70;20142;-82
2023/09/03 05:49:19;;;;;;;7.13;4.40;;;;;;;17.63;71.27;93560.06;2051566;70;20170;-82
2023/09/03 05:51:47;;;;;;;7.70;5.40;;;;;;;17.64;71.11;93561.53;2048913;70;20146;-82
2023/09/03 05:54:14;;;;;;;8.73;5.07;;;;;;;17.53;71.67;93574.53;2051627;70;20150;-80
2023/09/03 05:56:40;;;;;;;9.80;5.13;;;;;;;17.68;71.32;93570.28;2054267;69;20216;-81
2023/09/03 05:59:08;;;;;;;7.60;5.38;;;;;;;17.68;71.91;93579.53;2053658;70;20579;-81
2023/09/03 06:01:35;;;;;;;8.38;4.88;;;;;;;17.74;70.92;93573.47;2053817;70;20142;-82
2023/09/03 06:04:04;;;;;;;8.68;5.68;;;;;;;17.41;72.67;93576.78;2054244;70;20146;-81
2023/09/03 06:06:40;;;;;;;7.50;5.10;;;;;;;17.73;71.28;93586.97;2054398;69;20149;-81
2023/09/03 06:09:06;;;;;;;6.93;5.22;;;;;;;17.78;70.35;93579.34;2058082;69;20173;-82
2023/09/03 06:11:33;;;;;;;9.90;5.47;;;;;;;17.49;72.20;93595.00;2054150;69;20153;-81
2023/09/03 06:14:00;;;;;;;9.02;5.65;;;;;;;17.47;72.59;93586.38;2057996;69;20249;-81
2023/09/03 06:16:27;;;;;;;8.40;5.57;;;;;;;17.76;71.79;93593.47;2058170;69;20137;-81
2023/09/03 06:18:54;;;;;;;7.97;5.47;;;;;;;17.86;70.59;93593.97;2058143;69;20578;-81
2023/09/03 06:21:20;;;;;;;7.97;5.32;;;;;;;17.83;70.99;93578.16;2058127;69;20140;-81
2023/09/03 06:23:47;;;;;;;9.32;4.63;;;;;;;17.98;70.38;93596.66;2051738;69;20141;-81
2023/09/03 06:26:14;;;;;;;7.68;4.90;;;;;;;17.95;70.75;93595.81;2058079;69;20521;-83
2023/09/03 06:28:40;;;;;;;8.85;5.18;;;;;;;17.92;70.00;93591.41;2059205;69;20727;-81
2023/09/03 06:31:05;;;;;;;8.63;5.55;;;;;;;18.09;70.34;93595.03;2059271;69;20254;-82
2023/09/03 06:33:31;;;;;;;10.52;5.20;;;;;;;18.18;70.39;93609.00;2059230;69;20156;-82
2023/09/03 06:35:57;;;;;;;10.32;5.32;;;;;;;18.28;70.20;93617.31;2059259;69;20137;-81
2023/09/03 06:38:26;;;;;;;7.80;5.22;;;;;;;18.25;69.40;93627.16;2055801;69;20249;-81
2023/09/03 06:40:52;;;;;;;7.18;4.78;;;;;;;18.25;70.17;93625.03;2055716;69;20141;-81
2023/09/03 06:43:19;;;;;;;9.93;5.40;;;;;;;18.34;70.13;93628.25;2059266;69;20593;-81
2023/09/03 06:45:46;;;;;;;6.97;5.30;;;;;;;18.37;70.27;93622.03;2059245;69;20148;-81
2023/09/03 06:48:13;;;;;;;8.27;5.68;;;;;;;18.43;70.01;93622.28;2059079;69;20130;-81
2023/09/03 06:50:42;;;;;;;7.10;4.70;;;;;;;18.78;64.39;93636.06;2059225;69;20285;-81
2023/09/03 06:53:10;;;;;;;8.93;5.13;;;;;;;19.00;67.78;93636.28;2059031;69;20161;-81
2023/09/03 06:55:37;;;;;;;8.00;4.93;;;;;;;19.15;69.09;93639.78;2059031;69;20138;-81
2023/09/03 06:58:03;;;;;;;6.57;4.85;;;;;;;19.38;68.01;93650.03;2058962;69;20227;-81
2023/09/03 07:00:34;;;;;;;8.85;5.13;;;;;;;19.45;67.91;93648.94;2055244;69;20177;-81
2023/09/03 07:03:00;;;;;;;8.40;5.68;;;;;;;19.36;67.87;93659.25;2059168;69;20179;-82
2023/09/03 07:05:25;;;;;;;10.35;5.95;;;;;;;19.60;66.45;93651.03;2055637;69;20134;-82
2023/09/03 07:07:51;;;;;;;6.78;5.50;;;;;;;19.91;65.52;93658.03;2059158;69;20142;-82
2023/09/03 07:10:18;;;;;;;8.25;5.15;;;;;;;20.14;65.71;93653.94;2059066;69;20298;-82
2023/09/03 07:12:44;;;;;;;7.75;5.22;;;;;;;20.17;66.33;93659.09;2058976;69;20146;-82
2023/09/03 07:15:11;;;;;;;8.98;5.78;;;;;;;20.06;65.62;93660.78;2058561;69;20566;-82
2023/09/03 07:17:37;;;;;;;8.40;5.75;;;;;;;20.03;66.15;93661.38;2059058;69;20161;-82
2023/09/03 07:20:03;;;;;;;9.63;5.90;;;;;;;20.05;66.13;93670.75;2059153;69;20146;-82
2023/09/03 07:22:30;;;;;;;7.05;5.15;;;;;;;20.44;65.18;93669.47;2059150;69;20137;-82
2023/09/03 07:24:55;;;;;;;9.73;5.47;;;;;;;20.62;64.81;93668.72;2059258;69;20132;-82
2023/09/03 07:27:21;;;;;;;11.50;5.68;;;;;;;20.45;65.45;93675.91;2059408;69;20156;-82
2023/09/03 07:29:53;;;;;;;8.95;5.45;;;;;;;20.83;64.80;93676.72;2055499;69;20641;-82
2023/09/03 07:32:22;;;;;;;9.93;5.28;;;;;;;20.66;64.86;93674.59;2059104;69;20248;-82
2023/09/03 07:34:50;;;;;;;9.48;5.50;;;;;;;20.87;64.51;93656.81;2059154;69;20268;-82
2023/09/03 07:37:18;;;;;;;7.47;4.80;;;;;;;21.17;64.32;93676.53;2059414;69;20146;-82
2023/09/03 07:39:45;;;;;;;6.28;4.75;;;;;;;21.19;63.15;93676.59;2058732;69;20146;-82
2023/09/03 07:42:12;;;;;;;8.40;4.80;;;;;;;21.63;64.24;93671.06;2058370;69;20158;-82
2023/09/03 07:44:39;;;;;;;8.02;4.88;;;;;;;21.89;62.09;93659.75;2058302;69;20518;-82
2023/09/03 07:47:08;;;;;;;7.65;4.43;;;;;;;21.90;61.20;93652.59;2058338;69;20594;-82
2023/09/03 07:49:35;;;;;;;6.07;4.75;;;;;;;21.72;61.00;93649.88;2058364;69;20236;-82
2023/09/03 07:52:00;;;;;;;6.57;4.80;;;;;;;22.09;59.69;93651.84;2058524;69;20229;-83
2023/09/03 07:54:26;;;;;;;5.20;4.30;;;;;;;22.15;58.57;93643.44;2058519;69;20148;-82
2023/09/03 07:56:54;;;;;;;6.07;4.25;;;;;;;22.43;58.24;93642.91;2058484;69;20212;-83
2023/09/03 07:59:20;;;;;;;6.00;4.50;;;;;;;22.98;57.98;93645.31;2054537;69;20216;-82
2023/09/03 08:01:47;;;;;;;7.50;4.43;;;;;;;23.13;57.43;93637.13;2058367;69;20597;-82
2023/09/03 08:04:13;;;;;;;9.68;4.60;;;;;;;23.42;57.25;93641.56;2058357;69;20258;-83
2023/09/03 08:06:39;;;;;;;5.95;4.28;;;;;;;23.70;54.65;93630.13;2058378;69;20145;-83
2023/09/03 08:09:06;;;;;;;5.30;3.78;;;;;;;23.49;55.65;93631.66;2058295;69;20606;-83
2023/09/03 08:11:32;;;;;;;7.07;3.95;;;;;;;23.57;54.27;93634.78;2054732;69;20137;-83
2023/09/03 08:13:59;;;;;;;6.15;3.85;;;;;;;23.97;54.60;93628.66;2058355;69;20181;-83
2023/09/03 08:16:28;;;;;;;8.05;4.22;;;;;;;23.97;54.46;93628.66;2058539;69;20582;-82
2023/09/03 08:18:53;;;;;;;6.20;3.97;;;;;;;24.37;53.53;93628.94;2058393;69;20590;-83
2023/09/03 08:21:19;;;;;;;5.55;4.15;;;;;;;24.14;53.03;93633.38;2054818;69;20152;-80
2023/09/03 08:23:44;;;;;;;4.70;4.07;;;;;;;23.93;54.44;93631.44;2058386;69;20692;-81
2023/09/03 08:26:10;;;;;;;4.75;3.67;;;;;;;24.47;52.48;93631.34;2058435;69;20597;-81
2023/09/03 08:28:35;;;;;;;4.43;3.92;;;;;;;24.88;53.27;93630.13;2054610;69;20169;-80
2023/09/03 08:31:02;;;;;;;4.45;3.70;;;;;;;24.50;50.98;93629.97;2058333;69;20149;-81
2023/09/03 08:33:27;;;;;;;5.03;3.85;;;;;;;25.15;51.01;93639.34;2058291;69;20608;-83
2023/09/03 08:35:53;;;;;;;3.90;3.50;;;;;;;25.28;51.10;93626.66;2058354;69;20142;-84
2023/09/03 08:38:19;;;;;;;7.15;4.20;;;;;;;25.19;51.06;93640.16;2058248;69;20205;-81
2023/09/03 08:40:50;;;;;;;5.63;3.80;;;;;;;25.58;49.45;93640.94;2058488;69;20141;-83
2023/09/03 08:43:19;;;;;;;5.63;3.67;;;;;;;25.60;49.28;93635.94;2058524;69;20184;-82
2023/09/03 08:45:56;;;;;;;4.03;3.63;;;;;;;25.42;49.88;93638.47;2058392;69;20153;-82
2023/09/03 08:48:22;;;;;;;5.72;4.00;;;;;;;25.83;48.33;93637.13;2058376;69;20141;-82
2023/09/03 08:50:50;;;;;;;4.97;3.90;;;;;;;25.82;48.64;93649.38;2058340;69;20142;-83
2023/09/03 08:53:16;;;;;;;4.45;4.00;;;;;;;25.80;49.60;93641.41;2059101;69;20677;-82
2023/09/03 08:55:43;;;;;;;4.70;3.90;;;;;;;26.10;48.93;93643.38;2058339;69;20252;-82
2023/09/03 08:58:09;;;;;;;4.80;3.70;;;;;;;26.61;47.13;93661.56;2058514;69;20311;-82
2023/09/03 09:00:36;;;;;;;4.40;3.55;;;;;;;26.61;46.99;93661.56;2054498;69;20145;-82
2023/09/03 09:03:10;;;;;;;5.63;3.60;;;;;;;26.42;46.32;93669.19;2058124;69;20513;-82
2023/09/03 09:05:37;;;;;;;4.65;3.47;;;;;;;26.68;48.11;93668.19;2055076;69;20142;-82
2023/09/03 09:08:04;;;;;;;4.28;3.67;;;;;;;26.82;46.50;93669.13;2058059;69;20138;-81
2023/09/03 09:10:39;;;;;;;4.22;3.55;;;;;;;26.85;46.47;93669.91;2054707;69;20185;-82
2023/09/03 09:13:10;;;;;;;5.25;3.50;;;;;;;26.80;46.25;93659.69;2054722;69;20586;-82
2023/09/03 09:15:42;;;;;;;4.28;3.60;;;;;;;27.53;46.09;93642.63;2058315;69;20137;-82
2023/09/03 09:18:10;;;;;;;5.68;3.35;;;;;;;27.22;44.70;93645.16;2052050;69;20601;-82
2023/09/03 09:20:39;;;;;;;5.63;3.45;;;;;;;27.02;45.07;93641.94;2058141;69;20153;-81
2023/09/03 09:23:07;;;;;;;4.93;3.58;;;;;;;27.64;43.61;93646.41;2058377;69;20203;-81
2023/09/03 09:25:34;;;;;;;5.60;3.28;;;;;;;27.49;44.40;93642.59;2058422;69;20506;-81
2023/09/03 09:28:10;;;;;;;3.65;3.20;;;;;;;27.68;44.22;93640.66;2058463;69;20248;-82
2023/09/03 09:30:35;;;;;;;3.70;3.17;;;;;;;26.99;45.39;93632.53;2058408;69;20669;-81
2023/09/03 09:33:07;;;;;;;4.13;3.15;;;;;;;27.05;44.51;93635.50;2058394;69;20225;-82
2023/09/03 09:35:33;;;;;;;5.05;3.28;;;;;;;27.91;44.32;93622.13;2058820;69;20533;-82
2023/09/03 09:38:09;;;;;;;3.70;3.22;;;;;;;28.26;42.08;93634.75;2054838;69;20172;-82
2023/09/03 09:40:37;;;;;;;5.38;3.28;;;;;;;28.72;41.23;93639.50;2058402;69;20150;-81
2023/09/03 09:43:07;;;;;;;4.95;3.13;;;;;;;29.24;41.32;93643.50;2054898;69;20145;-82
2023/09/03 09:45:50;;;;;;;4.65;3.10;;;;;;;28.05;42.97;93633.13;2058317;69;20642;-81
2023/09/03 09:48:17;;;;;;;3.50;3.20;;;;;;;28.97;40.18;93639.72;2058393;69;20145;-82
2023/09/03 09:50:46;;;;;;;4.85;3.25;;;;;;;28.50;42.48;93627.75;2055011;69;20590;-82
2023/09/03 09:53:26;;;;;;;4.25;3.50;;;;;;;29.35;42.22;93636.31;2058251;69;20602;-83
2023/09/03 09:55:59;;;;;;;3.75;3.05;;;;;;;29.06;39.63;93627.44;2055223;69;20141;-83
2023/09/03 09:58:39;;;;;;;3.38;3.08;;;;;;;29.18;40.61;93629.69;2058198;69;20146;-83
2023/09/03 10:01:05;;;;;;;5.57;3.33;;;;;;;29.46;40.61;93625.47;2058433;69;20148;-85
2023/09/03 10:03:46;;;;;;;4.07;2.80;;;;;;;29.93;39.87;93628.56;2058306;69;20275;-85
2023/09/03 10:06:20;;;;;;;6.90;3.30;;;;;;;30.29;39.80;93619.97;2058391;69;20611;-86
2023/09/03 10:08:51;;;;;;;4.95;3.30;;;;;;;30.29;38.57;93616.31;2058398;69;20153;-86
2023/09/03 10:11:19;;;;;;;4.68;3.25;;;;;;;31.01;37.99;93622.84;2054778;69;20186;-86
2023/09/03 10:13:44;;;;;;;6.75;3.30;;;;;;;30.02;39.05;93621.34;2058207;69;20162;-86
2023/09/03 10:16:10;;;;;;;4.03;3.42;;;;;;;28.63;41.28;93611.91;2058328;69;20153;-85
2023/09/03 10:18:43;;;;;;;4.90;3.33;;;;;;;31.17;38.80;93613.38;2058488;69;20157;-85
2023/09/03 10:21:10;;;;;;;3.88;3.30;;;;;;;31.92;36.52;93613.13;2054768;69;20161;-85
2023/09/03 10:23:46;;;;;;;4.00;3.22;;;;;;;32.02;36.86;93618.16;2054881;69;20149;-84
2023/09/03 10:26:13;;;;;;;3.83;3.17;;;;;;;31.27;36.44;93619.91;2058291;69;20225;-84
2023/09/03 10:28:44;;;;;;;3.67;3.08;;;;;;;32.50;35.54;93611.31;2054620;69;20181;-84
2023/09/03 10:31:11;;;;;;;4.68;3.22;;;;;;;32.48;34.83;93608.41;2058331;69;20629;-84
2023/09/03 10:33:40;;;;;;;3.85;3.30;;;;;;;32.02;35.42;93598.50;2058231;69;20142;-86
2023/09/03 10:36:17;;;;;;;5.22;3.28;;;;;;;32.98;35.10;93605.81;2058247;69;20161;-83
2023/09/03 10:38:44;;;;;;;3.63;3.20;;;;;;;32.52;35.55;93604.75;2058233;69;20145;-84
2023/09/03 10:41:19;;;;;;;5.45;2.90;;;;;;;33.06;34.77;93608.66;2058259;69;20227;-84
2023/09/03 10:43:47;;;;;;;6.15;3.13;;;;;;;33.61;34.93;93608.81;2058182;69;20185;-87
2023/09/03 10:46:13;;;;;;;4.18;2.90;;;;;;;34.28;33.34;93615.25;2058259;69;20130;-86
2023/09/03 10:48:39;;;;;;;3.20;2.90;;;;;;;34.82;32.91;93610.78;2058251;69;20160;-86
2023/09/03 10:51:05;;;;;;;3.40;2.88;;;;;;;35.46;32.36;93616.25;2058188;69;20609;-86
2023/09/03 10:53:37;;;;;;;3.80;2.90;;;;;;;36.03;30.90;93620.28;2058192;69;20150;-85
2023/09/03 10:56:21;;;;;;;4.72;3.05;;;;;;;36.67;29.70;93626.19;2058241;69;20594;-85
2023/09/03 10:59:00;;;;;;;3.95;3.10;;;;;;;36.11;29.77;93611.31;2054503;69;20229;-86
2023/09/03 11:01:32;;;;;;;4.47;3.22;;;;;;;35.44;31.04;93604.56;2058199;69;20161;-86
2023/09/03 11:04:04;;;;;;;3.78;2.70;;;;;;;37.18;30.47;93606.59;2058184;69;20171;-86
2023/09/03 11:06:34;;;;;;;4.70;2.90;;;;;;;36.35;28.95;93607.09;2058350;69;20498;-86
2023/09/03 11:09:08;;;;;;;4.57;2.80;;;;;;;37.99;28.43;93604.41;2058344;69;20169;-85
2023/09/03 11:11:35;;;;;;;3.42;2.53;;;;;;;38.34;25.57;93618.78;2058863;69;20142;-86
2023/09/03 11:14:02;;;;;;;5.28;2.67;;;;;;;36.85;26.44;93604.47;2054644;69;20153;-85
2023/09/03 11:16:28;;;;;;;3.42;2.40;;;;;;;37.34;27.04;93606.16;2058793;69;20154;-86
2023/09/03 11:18:54;;;;;;;7.57;2.40;;;;;;;38.36;27.48;93618.75;2055126;69;20144;-86
2023/09/03 11:21:26;;;;;;;3.40;2.05;;;;;;;39.06;24.46;93619.50;2058679;69;20611;-85
2023/09/03 11:24:02;;;;;;;2.60;2.17;;;;;;;39.88;23.26;93629.19;2058643;69;20149;-86
2023/09/03 11:26:32;;;;;;;3.28;2.25;;;;;;;38.42;25.67;93628.88;2058661;69;20158;-86
2023/09/03 11:28:58;;;;;;;3.67;2.30;;;;;;;37.61;27.09;93623.81;2058601;69;20699;-85
2023/09/03 11:31:24;;;;;;;2.53;2.05;;;;;;;38.07;25.90;93626.94;2058580;69;20233;-85
2023/09/03 11:33:50;;;;;;;3.05;2.30;;;;;;;38.87;25.87;93617.16;2055183;69;20192;-86
2023/09/03 11:36:24;;;;;;;2.72;2.10;;;;;;;38.67;25.97;93623.66;2058792;69;20673;-86
2023/09/03 11:38:56;;;;;;;2.45;2.17;;;;;;;37.60;26.37;93605.47;2058631;69;20253;-86